Flight Track Log - Related Links

Times and Time Zones

All times are in EDT time to prevent confusion due to time zone crossing. See the ASQ4179 flight status page for this flight to view local times or setup timezone preferences in your user account.

Time Position Orientation Groundspeed Altitude Reporting Facility
EDT Latitude Longitude Course Direction KTS MPH feet Rate Location/Type
Sat 08:05:34 AM 40.6333 -74.2000 47° Northeast 197 227 2,300  Level New York TRACON
Sat 08:06:34 AM 40.6833 -74.2167 346° North 241 277 4,400 2,050 Climbing New York TRACON
Sat 08:07:00 AM 40.8124 -73.9709 37° Northeast  Level FlightAware Approximate
Sat 08:07:34 AM 40.7333 -74.1667 37° Northeast 263 303 6,400  Level New York TRACON
Sat 08:08:00 AM 40.8576 -73.9091 37° Northeast  Level FlightAware Approximate
Sat 08:08:34 AM 40.7667 -74.0833 62° Northeast 278 320 8,700  Level New York TRACON
Sat 08:09:00 AM 40.8978 -73.8465 47° Northeast  Level FlightAware Approximate
Sat 08:09:34 AM 40.8167 -73.9833 57° Northeast 308 354 10,100  Level New York TRACON
Sat 08:10:00 AM 40.9431 -73.7830 47° Northeast  Level FlightAware Approximate
Sat 08:10:34 AM 40.8833 -73.8833 49° Northeast 350 403 11,200  Level New York TRACON
Sat 08:13:01 AM 41.0519 -73.6375 48° Northeast 377 434 12,200 638 Climbing Boston Center
Sat 08:14:01 AM 41.1133 -73.5447 49° Northeast 377 434 13,400 1,400 Climbing Boston Center
Sat 08:15:01 AM 41.1894 -73.4275 49° Northeast 377 434 15,000 1,600 Climbing Boston Center
Sat 08:16:01 AM 41.2611 -73.3236 47° Northeast 377 434 16,600 1,000 Climbing Boston Center
Sat 08:17:01 AM 41.3244 -73.2306 48° Northeast 377 434 17,000 600 Climbing Boston Center
Sat 08:18:01 AM 41.3878 -73.0875 59° Northeast 396 456 17,800 900 Climbing Boston Center
Sat 08:19:01 AM 41.4072 -72.9522 79° East 410 472 18,800 600 Climbing Boston Center
Sat 08:20:01 AM 41.4350 -72.7833 78° East 420 483 19,000 100 Climbing Boston Center
Sat 08:21:01 AM 41.4583 -72.6367 78° East 435 501 19,000  Level Boston Center
Sat 08:22:01 AM 41.4897 -72.4539 77° East 450 518 19,000  Level Boston Center
Sat 08:23:01 AM 41.5272 -72.3097 71° East 450 518 19,000  Level Boston Center
Sat 08:24:01 AM 41.5728 -72.1514 69° East 456 525 19,000 -500 Level Boston Center
Sat 08:25:01 AM 41.6200 -71.9819 70° East 451 519 18,000 -1,400 Descending Boston Center
Sat 08:26:01 AM 41.6569 -71.8539 69° East 428 493 16,200 -1,800 Descending Boston Center
Sat 08:27:01 AM 41.7039 -71.6922 69° East 414 476 14,400 -1,450 Descending Boston Center
Sat 08:28:01 AM 41.7467 -71.5497 68° East 414 476 13,300 -950 Descending Boston Center
Sat 08:29:01 AM 41.7933 -71.4097 66° East 414 476 12,500 -850 Descending Boston Center
Sat 08:30:01 AM 41.8528 -71.2892 56° Northeast 395 455 11,600 -700 Descending Boston Center
Sat 08:31:01 AM 41.9269 -71.2094 39° Northeast 343 395 11,100 -800 Descending Boston Center
Sat 08:32:01 AM 42.0081 -71.1997 North 297 342 10,000 -1,250 Descending Boston Center
Sat 08:33:01 AM 42.0831 -71.1925 North 280 322 8,600 -1,700 Descending Boston Center
Sat 08:34:01 AM 42.1578 -71.1797 North 269 310 6,600 -1,750 Descending Boston Center
Sat 08:35:01 AM 42.2308 -71.1700 North 274 315 5,100 -800 Descending Boston Center
Sat 08:36:01 AM 42.3078 -71.1544 North 275 316 5,000 -50 Descending Boston Center
Sat 08:37:01 AM 42.3761 -71.1219 19° North 275 316 5,000 -700 Level Boston Center
Sat 08:38:01 AM 42.4528 -71.0781 23° Northeast 275 316 3,600 -1,000 Descending Boston Center
Sat 08:39:01 AM 42.5147 -71.0458 21° North 270 311 3,000 -300 Descending Boston Center
Sat 08:40:01 AM 42.5389 -70.9692 67° East 216 249 3,000 -350 Level Boston Center
Sat 08:41:01 AM 42.4867 -70.9564 170° South 125 144 2,300 -700 Descending Boston Center
Sat 08:42:01 AM 42.4367 -70.9744 195° South 171 197 1,600 -777 Descending Boston Center
Sat 08:43:20 AM 42.3833 -70.9833 187° South 132 152 500 -835 Descending KA90
Sat 08:45:00 AM 42.3630 -71.0064 188° South  Level Estimated

Login

Don't have an account? Register now (free) for customized features, flight alerts, and more!